Terminal Aerodrome Forecast
Issued by NWS Cleveland, OH

Home | Current Version | Previous Version | Text Only | Print | Product List | Glossary On
Versions: 1 2 3 4 5 6 7 8 9 10 11 12 13 14 15 16 17 18 19 20 21 22 23 24 25
000
FTUS41 KCLE 210800 AAA
TAFMFD
TAF AMD
KMFD 210807Z 2108/2206 30006KT 2SM BR OVC003
      TEMPO 2109/2113 3SM -DZ BR OVC006
     FM211300 30009KT 3SM BR BKN006 OVC015
     FM211500 32011KT 6SM BR SCT008 OVC015
     FM211900 33012G18KT P6SM OVC020
     FM220200 33009KT P6SM OVC018=

USA.gov is the U.S. government's official web portal to all federal, state and local government web resources and services.